Time;durP1;ratioP1;P1;durP2;ratioP2;P2;SDS_P1;SDS_P2;PMS_P1;PMS_P2;Temp;Humidity;BMP_temperature;BMP_pressure;BME280_temperature;BME280_humidity;BME280_pressure;Samples;Min_cycle;Max_cycle;Signal;HPM_P1;HPM_P2
2022/04/27 00:01:16;;;;;;;8.77;7.82;;;;;;;10.86;75.78;96923.84;4973045;28;20055;-76
2022/04/27 00:03:43;;;;;;;8.50;7.07;;;;;;;10.86;76.15;96921.25;4973431;28;20055;-76
2022/04/27 00:06:11;;;;;;;7.22;6.53;;;;;;;10.87;76.10;96925.50;4972596;28;20055;-75
2022/04/27 00:08:38;;;;;;;7.22;6.53;;;;;;;10.82;74.77;96923.41;4973188;28;20043;-77
2022/04/27 00:11:07;;;;;;;9.07;7.55;;;;;;;10.79;73.26;96930.75;4973479;28;20046;-76
2022/04/27 00:13:35;;;;;;;7.03;6.43;;;;;;;10.79;74.74;96925.53;4974183;28;20081;-76
2022/04/27 00:16:03;;;;;;;9.32;7.38;;;;;;;10.78;75.30;96923.91;4973368;28;20052;-77
2022/04/27 00:18:31;;;;;;;8.68;7.18;;;;;;;10.77;73.42;96922.28;4973005;28;20497;-77
2022/04/27 00:20:58;;;;;;;6.93;6.22;;;;;;;10.74;74.33;96922.66;4973606;28;20050;-76
2022/04/27 00:23:26;;;;;;;8.90;6.78;;;;;;;10.72;73.97;96917.59;4973197;28;20046;-76
2022/04/27 00:25:54;;;;;;;7.97;7.18;;;;;;;10.72;74.50;96923.63;4974294;28;20047;-76
2022/04/27 00:28:23;;;;;;;7.03;6.32;;;;;;;10.72;74.24;96921.00;4976606;28;20501;-75
2022/04/27 00:30:50;;;;;;;7.65;6.85;;;;;;;10.74;74.68;96920.84;4976579;28;20059;-76
2022/04/27 00:33:18;;;;;;;8.27;6.68;;;;;;;10.75;74.57;96919.84;4976585;28;20058;-76
2022/04/27 00:35:46;;;;;;;8.23;6.57;;;;;;;10.75;74.82;96919.03;4975773;28;20070;-74
2022/04/27 00:38:13;;;;;;;8.45;7.65;;;;;;;10.75;74.92;96919.03;4976072;28;20497;-76
2022/04/27 00:40:41;;;;;;;7.63;6.82;;;;;;;10.75;74.16;96926.88;4976155;28;20516;-76
2022/04/27 00:43:08;;;;;;;8.02;7.22;;;;;;;10.74;74.22;96928.69;4976478;28;20057;-76
2022/04/27 00:45:37;;;;;;;7.55;6.78;;;;;;;10.72;72.69;96923.63;4976626;28;20057;-76
2022/04/27 00:48:05;;;;;;;9.60;6.90;;;;;;;10.71;73.85;96924.63;4975714;28;20461;-76
2022/04/27 00:50:33;;;;;;;7.25;6.55;;;;;;;10.69;72.51;96921.38;4976351;28;20051;-76
2022/04/27 00:53:01;;;;;;;7.88;7.07;;;;;;;10.70;73.39;96923.00;4976337;28;20063;-76
2022/04/27 00:55:30;;;;;;;7.00;6.30;;;;;;;10.69;73.82;96926.59;4976048;28;20493;-76
2022/04/27 00:57:59;;;;;;;7.57;6.78;;;;;;;10.68;73.07;96932.78;4975301;28;20150;-76
2022/04/27 01:00:27;;;;;;;6.80;6.10;;;;;;;10.67;72.67;96933.78;4975853;28;20057;-76
2022/04/27 01:02:56;;;;;;;8.07;6.85;;;;;;;10.66;72.98;96933.94;4976150;28;20077;-76
2022/04/27 01:05:24;;;;;;;7.60;6.80;;;;;;;10.65;73.22;96934.94;4976029;28;20061;-76
2022/04/27 01:07:53;;;;;;;8.13;7.32;;;;;;;10.64;73.90;96949.75;4975125;28;20051;-76
2022/04/27 01:10:20;;;;;;;8.10;7.03;;;;;;;10.63;74.37;96940.34;4976044;28;20054;-76
2022/04/27 01:12:47;;;;;;;7.15;6.45;;;;;;;10.63;73.37;96947.34;4975895;28;20525;-76
2022/04/27 01:15:31;;;;;;;8.40;7.00;;;;;;;10.64;75.64;96949.75;4976017;28;20055;-76
2022/04/27 01:18:00;;;;;;;6.95;6.25;;;;;;;10.62;74.16;96951.72;4980707;28;20061;-76
2022/04/27 01:20:31;;;;;;;7.20;6.47;;;;;;;10.61;74.81;96952.72;4998073;28;20106;-75
2022/04/27 01:23:01;;;;;;;7.10;6.40;;;;;;;10.60;74.11;96956.31;4989651;28;20491;-76
2022/04/27 01:25:29;;;;;;;7.05;6.07;;;;;;;10.60;74.47;96952.91;4976346;28;20073;-76
2022/04/27 01:27:56;;;;;;;6.10;5.55;;;;;;;10.60;74.50;96948.47;4975361;28;20051;-76
2022/04/27 01:30:24;;;;;;;6.72;5.97;;;;;;;10.58;73.92;96945.22;4975861;28;20062;-75
2022/04/27 01:32:51;;;;;;;8.35;5.35;;;;;;;10.54;72.56;96949.19;4975826;28;20489;-75
2022/04/27 01:35:19;;;;;;;6.05;5.28;;;;;;;10.53;72.69;96960.59;4975676;28;20051;-76
2022/04/27 01:38:03;;;;;;;6.15;5.55;;;;;;;10.51;72.83;96952.94;4974577;28;20055;-76
2022/04/27 01:40:31;;;;;;;7.43;6.20;;;;;;;10.50;72.74;96953.13;4975668;28;20077;-76
2022/04/27 01:42:58;;;;;;;6.03;5.28;;;;;;;10.48;73.21;96955.09;4975601;28;20493;-76
2022/04/27 01:45:26;;;;;;;8.25;7.38;;;;;;;10.48;73.79;96953.28;4975531;28;20058;-76
2022/04/27 01:47:54;;;;;;;6.78;6.05;;;;;;;10.48;73.40;96955.09;4975125;28;20047;-76
2022/04/27 01:50:21;;;;;;;6.80;6.10;;;;;;;10.47;73.54;96953.47;4975538;28;20066;-76
2022/04/27 01:55:36;;;;;;;6.88;6.15;;;;;;;10.45;73.67;96958.03;4975448;28;20050;-76
2022/04/27 01:58:03;;;;;;;5.88;5.18;;;;;;;10.42;72.93;96959.19;4974710;28;20061;-76
2022/04/27 02:00:31;;;;;;;6.28;5.68;;;;;;;10.40;73.15;96955.13;4975101;28;20054;-76
2022/04/27 02:02:59;;;;;;;6.50;5.53;;;;;;;10.38;72.05;96954.50;4967152;28;20424;-76
2022/04/27 02:05:27;;;;;;;6.22;5.63;;;;;;;10.31;71.75;96955.19;4974799;28;20054;-76
2022/04/27 02:07:56;;;;;;;5.90;5.30;;;;;;;10.28;71.57;96957.31;4974291;28;20085;-75
2022/04/27 02:10:23;;;;;;;6.28;5.38;;;;;;;10.26;71.97;96956.66;4974829;28;20055;-76
2022/04/27 02:12:51;;;;;;;6.85;5.85;;;;;;;10.26;72.71;96962.69;4974981;28;20058;-76
2022/04/27 02:15:18;;;;;;;7.72;6.63;;;;;;;10.25;72.86;96961.03;4975004;28;20297;-76
2022/04/27 02:17:46;;;;;;;7.07;5.80;;;;;;;10.19;70.99;96964.34;4974065;28;20054;-76
2022/04/27 02:20:14;;;;;;;7.63;6.47;;;;;;;10.18;72.71;96961.91;4974581;28;20046;-76
2022/04/27 02:22:41;;;;;;;10.00;7.65;;;;;;;10.19;73.58;96966.97;4975162;28;20050;-76
2022/04/27 02:25:10;;;;;;;6.85;6.05;;;;;;;10.22;73.58;96960.59;4974661;28;20556;-75
2022/04/27 02:27:38;;;;;;;8.25;7.15;;;;;;;10.22;72.58;96964.00;4973772;28;20532;-76
2022/04/27 02:30:07;;;;;;;9.75;6.68;;;;;;;10.22;72.39;96966.59;4974402;28;20051;-76
2022/04/27 02:32:34;;;;;;;10.45;8.43;;;;;;;10.23;73.65;96967.41;4974466;28;20058;-76
2022/04/27 02:35:02;;;;;;;9.18;7.60;;;;;;;10.21;73.09;96970.22;4974319;28;20425;-76
2022/04/27 02:37:30;;;;;;;9.93;7.97;;;;;;;10.21;72.96;96972.81;4973725;28;20065;-76
2022/04/27 02:39:58;;;;;;;9.85;8.27;;;;;;;10.21;72.98;96978.03;4974411;28;20134;-76
2022/04/27 02:42:27;;;;;;;8.20;7.28;;;;;;;10.18;72.71;96980.16;4974209;28;20063;-76
2022/04/27 02:44:56;;;;;;;10.98;7.45;;;;;;;10.19;73.78;96981.75;4974329;28;20053;-76
2022/04/27 02:47:24;;;;;;;10.38;7.70;;;;;;;10.19;73.76;96990.41;4972681;28;20516;-75
2022/04/27 02:52:36;;;;;;;10.50;8.38;;;;;;;10.18;74.12;96988.78;4974080;28;20051;-76
2022/04/27 02:55:05;;;;;;;9.50;7.45;;;;;;;10.15;72.34;96986.53;4974005;28;20051;-76
2022/04/27 02:57:33;;;;;;;10.10;8.57;;;;;;;10.13;72.13;96993.69;4973113;28;20051;-76
2022/04/27 03:00:01;;;;;;;9.35;8.00;;;;;;;10.14;73.55;96990.09;4973926;28;20505;-76
2022/04/27 03:02:29;;;;;;;9.45;8.15;;;;;;;10.15;74.12;96990.94;4973765;28;20073;-76
2022/04/27 03:04:57;;;;;;;13.27;9.40;;;;;;;10.14;74.17;96987.50;4974101;28;20047;-76
2022/04/27 03:07:24;;;;;;;9.93;8.70;;;;;;;10.15;74.45;96994.34;4973085;28;20536;-76
2022/04/27 03:09:52;;;;;;;10.52;8.88;;;;;;;10.14;72.68;96991.91;4973697;28;20047;-76
2022/04/27 03:12:19;;;;;;;10.88;8.82;;;;;;;10.12;73.75;96999.88;4973703;28;20050;-76
2022/04/27 03:14:48;;;;;;;10.25;9.02;;;;;;;10.12;74.11;96997.28;4973546;28;20062;-76
2022/04/27 03:17:16;;;;;;;9.73;8.55;;;;;;;10.09;73.19;97003.63;4973224;28;20053;-76
2022/04/27 03:19:43;;;;;;;11.30;9.82;;;;;;;10.09;74.47;97003.63;4973712;28;20099;-76
2022/04/27 03:22:11;;;;;;;11.90;9.82;;;;;;;10.11;75.20;97001.69;4973514;28;20058;-75
2022/04/27 03:24:38;;;;;;;10.70;9.43;;;;;;;10.13;75.31;97001.53;4973529;28;20065;-76
2022/04/27 03:27:06;;;;;;;11.63;9.68;;;;;;;10.15;75.54;97002.16;4972838;28;20050;-76
2022/04/27 03:29:33;;;;;;;10.77;9.43;;;;;;;10.14;73.56;97010.16;4973407;28;20073;-76
2022/04/27 03:32:02;;;;;;;14.05;9.88;;;;;;;10.13;75.23;96998.91;4973327;28;20057;-75
2022/04/27 03:34:30;;;;;;;11.10;8.90;;;;;;;10.15;75.27;96996.94;4973496;28;20054;-76
2022/04/27 03:36:58;;;;;;;13.07;9.48;;;;;;;10.15;75.10;97001.34;4972841;28;20050;-76
2022/04/27 03:39:25;;;;;;;13.90;10.52;;;;;;;10.14;74.70;96999.72;4973331;28;20062;-76
2022/04/27 03:42:09;;;;;;;11.70;9.68;;;;;;;10.13;74.27;96998.09;4973108;28;20051;-75
2022/04/27 03:44:36;;;;;;;11.82;9.20;;;;;;;10.14;75.32;97000.53;4972210;28;20050;-76
2022/04/27 03:47:07;;;;;;;11.13;8.93;;;;;;;10.14;74.47;97003.13;4972817;28;20086;-76
2022/04/27 03:49:34;;;;;;;12.52;9.45;;;;;;;10.13;75.05;97006.72;4973530;28;20055;-76
2022/04/27 03:52:02;;;;;;;14.07;9.25;;;;;;;10.13;74.44;97018.97;4972425;28;20047;-76
2022/04/27 03:54:29;;;;;;;14.50;10.30;;;;;;;10.11;74.92;97011.28;4973459;28;20067;-78
2022/04/27 03:56:58;;;;;;;12.57;9.43;;;;;;;10.09;74.63;97015.88;4983232;28;20046;-83
2022/04/27 03:59:26;;;;;;;13.95;9.77;;;;;;;10.06;75.13;97024.84;4987834;28;20050;-82
2022/04/27 04:10:05;;;;;;;11.63;9.93;;;;;;;9.89;72.49;97034.50;5754002;23;20051;-78
2022/04/27 04:12:36;;;;;;;12.63;10.80;;;;;;;9.88;74.27;97032.03;5345584;23;20052;-79
2022/04/27 04:15:17;;;;;;;13.70;10.73;;;;;;;9.89;75.77;97033.69;5025914;28;20034;-80
2022/04/27 04:17:53;;;;;;;13.45;11.02;;;;;;;9.92;75.69;97035.94;5041200;28;20044;-79
2022/04/27 04:36:58;;;;;;;18.80;12.50;;;;;;;9.82;75.26;97059.59;3965751;23;20303;-79
2022/04/27 04:39:26;;;;;;;17.92;13.38;;;;;;;9.80;75.51;97068.56;5041462;28;20030;-80
2022/04/27 04:41:54;;;;;;;19.88;13.93;;;;;;;9.78;75.07;97063.50;5041130;28;20030;-80
2022/04/27 04:44:22;;;;;;;17.08;13.38;;;;;;;9.76;75.18;97072.47;5041092;28;20058;-80
2022/04/27 04:46:51;;;;;;;16.73;12.38;;;;;;;9.77;75.64;97074.06;5035705;28;20053;-79
2022/04/27 04:49:20;;;;;;;17.85;12.88;;;;;;;9.77;76.06;97081.88;5039768;28;20034;-80
2022/04/27 04:51:49;;;;;;;16.60;11.80;;;;;;;9.78;76.86;97084.34;5040922;28;20060;-80
2022/04/27 04:54:26;;;;;;;13.98;11.30;;;;;;;9.79;76.14;97082.53;5509228;23;20040;-79
2022/04/27 04:56:54;;;;;;;17.17;12.27;;;;;;;9.77;75.14;97082.69;5040769;28;20056;-80
2022/04/27 04:59:24;;;;;;;15.32;12.35;;;;;;;9.76;75.53;97091.50;5194305;23;20054;-79
2022/04/27 11:01:55;;;;;;;10.70;7.57;;;;;;;13.57;58.93;97304.63;5043668;23;20073;-76
2022/04/27 11:04:32;;;;;;;8.07;6.60;;;;;;;13.67;57.41;97308.81;5012855;28;20054;-77
2022/04/27 11:07:18;;;;;;;7.00;6.38;;;;;;;13.72;55.94;97314.31;5012095;28;20063;-76
2022/04/27 11:10:08;;;;;;;7.45;6.75;;;;;;;13.85;56.49;97311.81;5012361;28;20053;-76
2022/04/27 11:12:36;;;;;;;7.63;5.70;;;;;;;13.92;55.65;97317.16;5012820;28;20452;-76
2022/04/27 11:15:04;;;;;;;6.75;6.00;;;;;;;13.93;54.78;97309.09;5012947;28;20056;-76
2022/04/27 11:17:34;;;;;;;6.82;6.13;;;;;;;13.92;53.85;97309.28;5012144;28;20415;-77
2022/04/27 11:20:03;;;;;;;7.55;6.10;;;;;;;13.94;54.12;97315.97;5012750;28;20045;-77
2022/04/27 11:22:38;;;;;;;7.60;6.85;;;;;;;13.89;53.62;97320.97;5012696;28;20057;-76
2022/04/27 11:25:08;;;;;;;7.47;6.68;;;;;;;13.92;54.73;97314.53;5012671;28;20060;-77
2022/04/27 11:27:36;;;;;;;6.93;6.00;;;;;;;14.01;54.97;97322.09;5011843;28;20144;-77
2022/04/27 11:30:07;;;;;;;7.85;6.47;;;;;;;14.04;52.92;97312.22;4995309;28;20452;-77
2022/04/27 11:32:38;;;;;;;6.45;5.85;;;;;;;14.07;52.82;97309.22;5012632;28;20073;-76
2022/04/27 11:35:06;;;;;;;5.88;5.30;;;;;;;14.11;53.21;97313.91;5012314;28;20053;-77
2022/04/27 11:37:37;;;;;;;7.78;6.03;;;;;;;14.14;52.55;97315.34;5013933;28;20045;-77
2022/04/27 11:40:15;;;;;;;6.97;6.22;;;;;;;14.13;52.48;97311.94;5021178;28;20049;-77
2022/04/27 11:42:46;;;;;;;11.80;6.30;;;;;;;14.14;53.03;97315.34;5021126;28;20515;-77
2022/04/27 11:45:18;;;;;;;8.52;6.40;;;;;;;14.14;52.83;97324.03;5012927;28;20052;-77
2022/04/27 11:47:55;;;;;;;7.97;6.63;;;;;;;14.14;52.49;97316.16;5013043;28;20054;-77
2022/04/27 11:50:23;;;;;;;8.18;6.63;;;;;;;14.22;53.67;97312.63;5012499;28;20050;-77
2022/04/27 11:52:58;;;;;;;6.90;6.18;;;;;;;14.34;52.80;97321.63;5012728;28;20069;-77
2022/04/27 11:55:25;;;;;;;10.10;6.22;;;;;;;14.46;52.93;97323.75;5012330;28;20518;-77
2022/04/27 11:57:53;;;;;;;6.20;5.60;;;;;;;14.47;49.77;97315.66;5011758;28;20056;-77
2022/04/27 12:00:21;;;;;;;6.68;5.85;;;;;;;14.45;49.33;97316.84;5012244;28;20053;-77
2022/04/27 12:02:50;;;;;;;6.63;6.03;;;;;;;14.43;48.84;97325.75;5011963;28;20056;-77
2022/04/27 12:05:28;;;;;;;7.43;5.97;;;;;;;14.38;48.95;97322.84;5012160;28;20656;-76
2022/04/27 12:07:56;;;;;;;7.65;6.55;;;;;;;14.34;50.19;97324.25;5011727;28;20050;-77
2022/04/27 12:10:24;;;;;;;7.63;6.82;;;;;;;14.29;49.85;97329.22;5012158;28;20423;-77
2022/04/27 12:12:52;;;;;;;10.55;7.80;;;;;;;14.21;50.05;97329.34;5012156;28;20054;-77
2022/04/27 12:15:25;;;;;;;9.35;7.53;;;;;;;14.17;49.45;97320.25;5012125;28;20427;-77
2022/04/27 12:17:55;;;;;;;10.90;7.45;;;;;;;14.13;49.94;97324.25;5011494;28;20476;-77
2022/04/27 12:20:37;;;;;;;8.32;7.40;;;;;;;14.10;50.71;97317.56;5014911;28;20049;-77
2022/04/27 12:23:07;;;;;;;10.97;7.63;;;;;;;14.09;51.36;97322.97;5026515;28;20053;-77
2022/04/27 12:25:36;;;;;;;8.30;7.28;;;;;;;14.14;51.41;97320.59;5025802;28;20057;-77
2022/04/27 12:28:06;;;;;;;8.25;6.95;;;;;;;14.20;51.63;97314.63;5020491;28;20049;-77
2022/04/27 12:30:41;;;;;;;8.05;7.07;;;;;;;14.28;51.52;97311.03;5016033;28;20057;-77
2022/04/27 12:33:11;;;;;;;6.72;6.00;;;;;;;14.37;51.68;97310.75;5015834;28;20041;-77
2022/04/27 12:38:28;;;;;;;6.53;5.05;;;;;;;14.46;48.65;97313.25;5015780;28;20508;-77
2022/04/27 12:40:56;;;;;;;5.97;5.38;;;;;;;14.50;49.09;97311.88;5015745;28;20046;-77
2022/04/27 12:43:24;;;;;;;6.05;5.30;;;;;;;14.55;48.03;97317.38;5015642;28;20052;-77
2022/04/27 12:46:07;;;;;;;7.00;6.30;;;;;;;14.55;45.87;97317.38;5014630;28;20064;-76
2022/04/27 12:48:36;;;;;;;8.65;5.60;;;;;;;14.53;46.62;97316.72;5015381;28;20100;-77
2022/04/27 12:51:06;;;;;;;5.82;5.25;;;;;;;14.52;47.10;97315.94;5015275;28;20054;-77
2022/04/27 12:53:34;;;;;;;7.13;5.47;;;;;;;14.52;47.29;97313.31;5015412;28;20053;-77
2022/04/27 12:56:10;;;;;;;7.50;6.15;;;;;;;14.53;47.09;97314.91;5020152;28;20046;-77
2022/04/27 12:58:38;;;;;;;7.05;5.97;;;;;;;14.50;46.92;97306.63;5021508;28;20050;-77
2022/04/27 13:01:06;;;;;;;10.07;6.07;;;;;;;14.51;46.99;97310.84;5020951;28;20050;-77
2022/04/27 13:03:35;;;;;;;8.73;6.03;;;;;;;14.54;47.76;97306.06;5020645;28;20054;-77
2022/04/27 13:06:03;;;;;;;7.63;6.35;;;;;;;14.62;47.65;97310.38;5014854;28;20140;-77
2022/04/27 13:08:31;;;;;;;8.30;6.35;;;;;;;14.68;47.23;97312.25;5015649;28;20085;-77
2022/04/27 13:13:44;;;;;;;6.43;5.70;;;;;;;14.82;50.78;97313.97;5015172;28;20046;-77
2022/04/27 13:16:11;;;;;;;6.28;5.68;;;;;;;14.89;50.84;97305.31;5014895;28;20500;-77
2022/04/27 13:18:40;;;;;;;11.00;6.45;;;;;;;14.92;47.27;97310.19;5015019;28;20050;-77
2022/04/27 13:21:08;;;;;;;9.55;6.55;;;;;;;14.91;46.97;97308.56;5014914;28;20054;-77
2022/04/27 13:23:36;;;;;;;7.78;6.20;;;;;;;14.89;46.24;97302.69;5014676;28;20045;-76
2022/04/27 13:26:03;;;;;;;7.07;5.93;;;;;;;14.90;47.00;97309.56;5014105;28;20054;-77
2022/04/27 13:28:31;;;;;;;7.05;6.07;;;;;;;14.93;47.08;97298.66;5014709;28;20068;-77
2022/04/27 13:30:59;;;;;;;9.00;6.30;;;;;;;14.97;46.66;97305.16;5014958;28;20050;-77
2022/04/27 13:33:28;;;;;;;10.27;6.25;;;;;;;15.01;46.33;97295.91;5013920;28;20054;-77
2022/04/27 13:35:57;;;;;;;5.68;5.07;;;;;;;15.02;46.17;97302.78;5013977;28;20049;-77
2022/04/27 13:38:24;;;;;;;9.75;5.60;;;;;;;15.03;45.45;97299.16;5014451;28;20050;-77
2022/04/27 13:40:52;;;;;;;6.78;5.50;;;;;;;15.07;45.79;97294.34;5014291;28;20056;-77
2022/04/27 13:43:19;;;;;;;7.88;4.95;;;;;;;15.14;45.44;97298.59;5014368;28;20048;-77
2022/04/27 13:45:47;;;;;;;5.63;5.10;;;;;;;15.24;45.05;97291.19;5013568;28;20052;-77
2022/04/27 13:48:14;;;;;;;12.30;6.13;;;;;;;15.34;44.95;97305.78;5014410;28;20401;-77
2022/04/27 13:50:42;;;;;;;5.90;5.30;;;;;;;15.37;45.42;97300.97;5014269;28;20056;-77
2022/04/27 13:53:12;;;;;;;8.23;5.38;;;;;;;15.41;45.19;97301.38;5014377;28;20050;-77
2022/04/27 13:55:40;;;;;;;7.90;6.03;;;;;;;15.41;45.50;97304.00;5014056;28;20054;-77
2022/04/27 13:58:07;;;;;;;7.40;4.80;;;;;;;15.40;45.00;97294.50;5013555;28;20062;-77
2022/04/27 14:00:55;;;;;;;8.13;5.47;;;;;;;15.39;44.88;97300.75;5013907;28;20416;-77
2022/04/27 14:03:22;;;;;;;8.15;5.43;;;;;;;15.40;44.90;97300.56;5014072;28;20041;-77
2022/04/27 14:05:52;;;;;;;10.98;5.78;;;;;;;15.40;44.26;97302.41;5013291;28;20045;-77
2022/04/27 14:08:21;;;;;;;8.23;6.20;;;;;;;15.37;44.40;97305.41;5014414;28;20496;-77
2022/04/27 14:10:48;;;;;;;8.43;5.25;;;;;;;15.33;44.58;97298.94;5014031;28;20419;-77
2022/04/27 14:13:16;;;;;;;7.97;5.78;;;;;;;15.31;44.35;97298.31;5014057;28;20046;-77
2022/04/27 14:18:09;;;;;;;6.13;5.47;;;;;;;15.31;44.39;97300.94;5013718;28;20053;-77
2022/04/27 14:18:32;;;;;;;5.78;5.15;;;;;;;15.34;44.51;97303.97;5013570;28;20065;-77
2022/04/27 14:21:01;;;;;;;6.55;5.40;;;;;;;15.34;44.60;97303.97;5013885;28;20053;-77
2022/04/27 14:23:29;;;;;;;6.38;5.78;;;;;;;15.35;44.25;97307.41;5013897;28;20069;-77
2022/04/27 14:25:57;;;;;;;5.82;5.22;;;;;;;15.34;44.68;97301.34;5013540;28;20049;-78
2022/04/27 14:28:24;;;;;;;6.68;5.95;;;;;;;15.35;46.65;97302.16;5013654;28;20045;-77
2022/04/27 14:30:52;;;;;;;8.00;6.47;;;;;;;15.37;45.12;97302.75;5013237;28;20518;-77
2022/04/27 14:33:21;;;;;;;7.85;6.00;;;;;;;15.37;45.02;97305.41;5013566;28;20052;-77
2022/04/27 14:35:48;;;;;;;8.25;6.10;;;;;;;15.38;44.27;97307.03;5012900;28;20053;-77
2022/04/27 14:38:16;;;;;;;7.38;4.95;;;;;;;15.39;44.38;97304.22;5013676;28;20049;-77
2022/04/27 14:40:47;;;;;;;12.18;4.93;;;;;;;15.41;44.86;97302.22;5013499;28;20052;-77
2022/04/27 14:43:14;;;;;;;5.78;5.03;;;;;;;15.47;47.49;97300.59;5014850;28;20519;-77
2022/04/27 14:45:42;;;;;;;5.68;5.07;;;;;;;15.50;44.69;97294.13;5014639;28;20424;-77
2022/04/27 14:48:10;;;;;;;6.38;5.68;;;;;;;15.49;44.18;97295.97;5013917;28;20061;-77
2022/04/27 14:50:37;;;;;;;6.18;5.57;;;;;;;15.47;44.05;97295.34;5013413;28;20057;-77
2022/04/27 14:53:06;;;;;;;7.68;5.63;;;;;;;15.44;44.88;97303.63;5013231;28;20049;-77
2022/04/27 14:55:41;;;;;;;7.20;5.07;;;;;;;15.40;45.11;97297.13;5013258;28;20072;-77
2022/04/27 14:58:10;;;;;;;7.63;5.13;;;;;;;15.41;45.26;97296.94;5012591;28;20042;-78
2022/04/27 15:00:38;;;;;;;5.82;5.15;;;;;;;15.40;44.48;97291.88;5013214;28;20056;-77
2022/04/27 15:03:06;;;;;;;5.28;4.78;;;;;;;15.38;44.30;97292.06;5013255;28;20492;-77
2022/04/27 15:05:33;;;;;;;6.70;5.85;;;;;;;15.35;43.97;97294.25;5012862;28;20100;-77
2022/04/27 15:08:01;;;;;;;5.53;4.50;;;;;;;15.33;45.86;97294.47;5012348;28;20056;-77
2022/04/27 15:10:29;;;;;;;4.97;4.47;;;;;;;15.32;44.13;97294.66;5013551;28;20056;-77
2022/04/27 15:12:56;;;;;;;5.57;5.07;;;;;;;15.29;43.73;97292.44;5012964;28;20428;-77
2022/04/27 15:15:25;;;;;;;4.90;4.50;;;;;;;15.25;43.45;97292.81;5013002;28;20065;-77
2022/04/27 15:17:53;;;;;;;5.75;4.45;;;;;;;15.24;44.34;97296.44;5012281;28;20149;-78
2022/04/27 15:23:06;;;;;;;5.20;4.18;;;;;;;15.24;44.47;97296.44;5012881;28;20144;-77
2022/04/27 15:25:34;;;;;;;4.90;3.58;;;;;;;15.24;45.29;97293.81;5012624;28;20065;-77
2022/04/27 15:28:02;;;;;;;4.45;4.03;;;;;;;15.26;45.07;97298.88;5012121;28;20061;-77
2022/04/27 15:30:32;;;;;;;5.68;3.65;;;;;;;15.26;44.59;97293.59;5012695;28;20084;-77
2022/04/27 15:33:00;;;;;;;4.50;3.25;;;;;;;15.28;47.12;97291.59;5012781;28;20092;-77
2022/04/27 15:35:28;;;;;;;6.15;3.63;;;;;;;15.30;43.97;97294.84;5012644;28;20081;-77
2022/04/27 15:37:55;;;;;;;5.70;3.53;;;;;;;15.32;43.16;97292.84;5012022;28;20050;-77
2022/04/27 15:40:24;;;;;;;4.07;3.53;;;;;;;15.33;43.26;97293.66;5012765;28;20049;-77
2022/04/27 15:42:52;;;;;;;4.30;3.90;;;;;;;15.37;42.74;97292.25;5012462;28;20412;-77
2022/04/27 15:45:20;;;;;;;5.07;3.42;;;;;;;15.37;44.31;97292.25;5012511;28;20050;-77
2022/04/27 15:47:53;;;;;;;5.57;4.20;;;;;;;15.40;43.65;97299.75;5012024;28;20077;-77
2022/04/27 15:50:21;;;;;;;5.35;4.10;;;;;;;15.39;43.60;97303.38;5012429;28;20093;-77
2022/04/27 15:52:49;;;;;;;4.93;3.40;;;;;;;15.39;43.43;97306.00;5012581;28;20050;-77
2022/04/27 15:55:17;;;;;;;4.55;4.15;;;;;;;15.37;43.09;97300.13;5013998;28;20042;-77
2022/04/27 15:57:45;;;;;;;4.93;4.43;;;;;;;15.33;43.47;97305.00;5015885;28;20056;-77
2022/04/27 16:00:16;;;;;;;5.40;3.75;;;;;;;15.33;43.26;97306.81;5016356;28;20057;-77
2022/04/27 16:02:44;;;;;;;5.00;4.57;;;;;;;15.30;42.96;97309.81;4999307;28;20076;-78
2022/04/27 16:05:13;;;;;;;4.20;3.78;;;;;;;15.29;43.79;97310.84;5015718;28;20508;-74
2022/04/27 16:07:42;;;;;;;8.50;4.53;;;;;;;15.30;45.69;97309.81;5013764;28;20069;-75
2022/04/27 16:10:10;;;;;;;5.10;4.60;;;;;;;15.31;46.09;97312.25;5016418;28;20049;-75
2022/04/27 16:12:39;;;;;;;4.93;4.43;;;;;;;15.32;44.32;97310.44;4997466;28;20073;-76
2022/04/27 16:15:10;;;;;;;4.72;4.25;;;;;;;15.33;44.08;97314.69;4996194;28;20137;-73
2022/04/27 16:17:38;;;;;;;5.25;3.95;;;;;;;15.33;45.15;97306.81;5013275;28;20495;-74
2022/04/27 16:20:08;;;;;;;5.07;4.57;;;;;;;15.37;44.38;97305.41;5140126;23;20083;-77
2022/04/27 16:25:22;;;;;;;5.70;5.00;;;;;;;15.40;43.92;97305.81;5015746;28;20057;-77
2022/04/27 16:27:52;;;;;;;5.20;4.70;;;;;;;15.42;43.70;97308.28;5010480;28;20049;-77
2022/04/27 16:30:20;;;;;;;5.50;4.90;;;;;;;15.42;44.16;97314.34;5036590;28;20246;-77
2022/04/27 16:32:55;;;;;;;5.63;5.03;;;;;;;15.43;44.28;97307.25;5017416;28;20057;-77
2022/04/27 16:35:23;;;;;;;6.28;5.05;;;;;;;15.44;44.33;97311.53;5011913;28;20041;-78
2022/04/27 16:37:52;;;;;;;5.78;4.63;;;;;;;15.42;44.77;97313.53;4996514;28;20050;-77
2022/04/27 16:40:20;;;;;;;4.88;4.38;;;;;;;15.40;44.54;97315.53;4996721;28;20058;-78
2022/04/27 16:42:48;;;;;;;5.03;4.53;;;;;;;15.37;44.61;97321.16;4996150;28;20054;-77
2022/04/27 16:45:15;;;;;;;6.68;5.63;;;;;;;15.33;44.84;97320.75;5000051;28;20476;-77
2022/04/27 16:47:43;;;;;;;5.53;5.03;;;;;;;15.29;44.62;97316.09;5019119;28;20075;-78
2022/04/27 16:50:10;;;;;;;5.60;5.10;;;;;;;15.22;44.83;97318.69;5028762;28;20057;-77
2022/04/27 16:52:38;;;;;;;7.32;5.70;;;;;;;15.17;44.78;97331.56;5009541;28;20500;-78
2022/04/27 16:55:08;;;;;;;5.78;5.28;;;;;;;15.11;44.96;97322.66;5002849;28;20050;-77
2022/04/27 16:57:36;;;;;;;5.85;5.03;;;;;;;15.07;44.92;97321.41;5008510;28;20042;-78
2022/04/27 17:02:50;;;;;;;6.50;4.57;;;;;;;15.01;45.34;97327.44;5015480;28;20069;-78
2022/04/27 17:05:19;;;;;;;5.05;4.43;;;;;;;14.97;45.66;97327.00;5014985;28;20416;-78
2022/04/27 17:07:47;;;;;;;5.63;4.97;;;;;;;14.95;45.58;97334.25;5009543;28;20050;-78
2022/04/27 17:10:16;;;;;;;5.72;5.13;;;;;;;14.93;45.98;97338.06;4996027;28;20486;-78
2022/04/27 17:12:44;;;;;;;6.18;5.57;;;;;;;14.89;46.38;97331.56;4995722;28;20057;-77
2022/04/27 17:15:11;;;;;;;5.72;5.22;;;;;;;14.86;46.30;97338.03;5006301;28;20489;-77
2022/04/27 17:17:39;;;;;;;5.55;5.03;;;;;;;14.84;46.96;97330.31;5013705;28;20046;-77
2022/04/27 17:28:32;;;;;;;7.85;5.80;;;;;;;14.74;46.72;97339.56;5024539;28;20038;-84
2022/04/27 17:31:12;;;;;;;;;;;;;;;14.76;47.24;97345.44;5036497;28;20081;-84
2022/04/27 17:33:53;;;;;;;7.60;5.57;;;;;;;14.72;47.28;97345.00;5035457;28;19953;-85
2022/04/27 17:36:43;;;;;;;6.90;5.97;;;;;;;14.70;47.07;97339.13;5032622;28;20049;-83
2022/04/27 17:39:22;;;;;;;7.40;5.88;;;;;;;14.68;47.39;97343.75;5024060;28;20117;-85
2022/04/27 17:45:01;;;;;;;6.70;5.68;;;;;;;14.60;47.45;97351.75;5019312;28;20052;-85
2022/04/27 17:47:40;;;;;;;6.57;5.55;;;;;;;14.55;47.12;97352.31;5017118;28;20094;-84
2022/04/27 17:50:19;;;;;;;7.22;5.82;;;;;;;14.52;47.88;97357.09;5012030;28;20038;-86
2022/04/27 17:53:00;;;;;;;10.40;5.90;;;;;;;14.48;47.60;97359.31;5018116;28;20118;-84
2022/04/27 17:58:34;;;;;;;8.70;5.03;;;;;;;14.42;48.21;97363.47;5010603;28;20042;-89
2022/04/27 18:03:53;;;;;;;8.80;5.93;;;;;;;14.36;48.60;97366.84;5423710;23;20042;-87
2022/04/27 18:06:39;;;;;;;5.85;5.28;;;;;;;14.34;50.25;97368.88;5038613;28;20054;-88
2022/04/27 18:09:18;;;;;;;9.73;5.82;;;;;;;14.31;49.02;97369.22;5038943;28;20058;-89
2022/04/27 18:12:04;;;;;;;6.80;6.10;;;;;;;14.28;49.20;97374.84;5030786;28;20050;-85
2022/04/27 18:14:40;;;;;;;7.93;5.88;;;;;;;14.21;49.43;97372.16;5019417;28;20050;-83
2022/04/27 18:17:27;;;;;;;7.55;6.43;;;;;;;14.18;49.46;97377.75;5036594;28;20049;-82
2022/04/27 18:20:21;;;;;;;8.63;5.88;;;;;;;14.14;49.88;97375.69;5023050;28;20050;-88
2022/04/27 18:23:05;;;;;;;6.43;5.68;;;;;;;14.09;50.18;97378.06;5058039;28;20061;-85
2022/04/27 18:28:47;;;;;;;8.25;5.70;;;;;;;13.97;50.85;97383.81;5026973;28;20026;-86
2022/04/27 18:34:17;;;;;;;9.52;6.55;;;;;;;13.94;51.45;97394.63;5016627;28;20030;-84
2022/04/27 18:36:58;;;;;;;11.80;7.75;;;;;;;13.91;51.70;97395.03;5027979;28;20064;-86
2022/04/27 18:39:27;;;;;;;14.27;9.70;;;;;;;13.89;52.05;97385.72;5021602;28;20053;-84
2022/04/27 18:42:01;;;;;;;11.52;8.68;;;;;;;13.85;51.94;97390.50;5025841;28;20056;-83
2022/04/27 18:50:11;;;;;;;7.68;6.88;;;;;;;13.74;53.06;97404.06;5003459;28;20070;-87
2022/04/27 18:52:40;;;;;;;7.07;6.38;;;;;;;13.68;53.23;97405.59;5024351;28;20055;-84
2022/04/27 18:55:10;;;;;;;8.77;6.65;;;;;;;13.64;54.24;97409.56;5040208;28;20559;-89
2022/04/27 18:57:42;;;;;;;7.97;6.43;;;;;;;13.59;53.66;97415.38;5031097;28;20054;-87